Home > Products > Valid Products > MTR

000
SAUS45 KVEF 161858
MTRBJN
METAR KBJN 161856Z AUTO 31012G16KT 250V340 10SM CLR 19/M08 A2997 RMK
AO2 SLP233 T01891078 $





000
SAUS45 KVEF 161758
MTRBJN
METAR KBJN 161756Z AUTO 10008KT 10SM CLR 16/M08 A2998 RMK AO2 SLP238
T01611078 10161 20050 50002 $





000
SAUS45 KVEF 161658
MTRBJN
METAR KBJN 161656Z AUTO 07007KT 10SM CLR 14/M07 A2999 RMK AO2 SLP240
T01441067 $





000
SAUS45 KVEF 161558
MTRBJN
METAR KBJN 161556Z AUTO 08004KT 10SM CLR 12/M08 A2998 RMK AO2 SLP236
T01171078 $





000
SAUS45 KVEF 161458
MTRBJN
METAR KBJN 161456Z AUTO 00000KT 10SM BKN055 09/M09 A2997 RMK AO2
SLP235 T00941094 50008 $





000
SAUS45 KVEF 161358
MTRBJN
METAR KBJN 161356Z AUTO 00000KT 10SM BKN060 06/M11 A2998 RMK AO2
SLP236 T00611106 $





000
SAUS45 KVEF 161258
MTRBJN
METAR KBJN 161256Z AUTO 29005KT 10SM OVC060 07/M11 A2996 RMK AO2
SLP230 T00671106 $





000
SAUS45 KVEF 161159 COR
MTRBJN
METAR KBJN 161156Z AUTO 32009KT 10SM CLR 05/M11 A2NNRMK AO2 SLP26
T00501106 10100 20039 55000 $





000
SAUS45 KVEF 161158 COR
MTRBJN
METAR KBJN 161156Z AUTO 32009KT 10SM CLR 05/M11 A2994 RMK AO2 SLP226
T00501106 10100 20039 55000 $





000
SAUS45 KVEF 161158
MTRBJN
METAR KBJN 161156Z AUTO 32009KT 10SM CLR 05/M11 A2994 RMK AO2 SLP226
T00501106 10100 20039 55000 $





000
SAUS45 KVEF 161058
MTRBJN
METAR KBJN 161056Z AUTO 31009KT 10SM CLR 06/M11 A2995 RMK AO2 SLP227
T00561111 $





000
SAUS45 KVEF 160958
MTRBJN
METAR KBJN 160956Z AUTO 31008KT 10SM CLR 04/M12 A2994 RMK AO2 SLP225
T00441122 $





000
SAUS45 KVEF 160858
MTRBJN
METAR KBJN 160856Z AUTO 31011KT 10SM CLR 05/M13 A2995 RMK AO2 SLP227
T00501133 58001 $





000
SAUS45 KVEF 160658
MTRBJN
METAR KBJN 160656Z AUTO 35007KT 10SM CLR 08/M14 A2996 RMK AO2 SLP232
T00781144 402170022 $





000
SAUS45 KVEF 160458
MTRBJN
METAR KBJN 160456Z AUTO 29008KT 10SM CLR 11/M16 A2995 RMK AO2 SLP228
T01061156 $





000
SAUS45 KVEF 160358
MTRBJN
METAR KBJN 160356Z AUTO 29007KT 10SM CLR 12/M17 A2994 RMK AO2 SLP224
T01171167 $





000
SAUS45 KVEF 160258
MTRBJN
METAR KBJN 160256Z AUTO 32010KT 10SM CLR 16/M17 A2992 RMK AO2 SLP219
T01611167 55003 $





000
SAUS45 KVEF 160158
MTRBJN
METAR KBJN 160156Z AUTO 31013KT 10SM CLR 19/M17 A2991 RMK AO2 SLP217
T01891172 $





000
SAUS45 KVEF 152258
MTRBJN
METAR KBJN 152256Z AUTO 30007G23KT 270V330 10SM CLR 21/M18 A2995 RMK
AO2 SLP227 T02111178 $





000
SAUS45 KVEF 152159 COR
MTRBJN
METAR KBJN 152156Z AUTO 27015G23KT 10SM CLR 21/M19 A2997 RMK AO2
SLP235 T02111194 $





000
SAUS45 KVEF 152158
MTRBJN
METAR KBJN 152156Z AUTO 27015G23KT 10SM CLR 21/M19 A2997 RMK AO2
SLP235 T02111194 $





000
SAUS45 KVEF 152058
MTRBJN
METAR KBJN 152056Z AUTO 28014KT 10SM CLR 20/M15 A3000 RMK AO2 SLP242
T02001150 58023 $





000
SAUS45 KVEF 151958
MTRBJN
METAR KBJN 151956Z AUTO 27014G18KT 10SM CLR 18/M16 A3003 RMK AO2
SLP251 T01831161 $





000
SAUS45 KVEF 151858
MTRBJN
METAR KBJN 151856Z AUTO 24012KT 10SM CLR 17/M16 A3005 RMK AO2 SLP258
T01721161 $





000
SAUS45 KVEF 151758
MTRBJN
METAR KBJN 151756Z AUTO 25010KT 10SM CLR 15/M16 A3008 RMK AO2 SLP265
T01501161 10156 20044 58006 $





000
SAUS45 KVEF 151658
MTRBJN
METAR KBJN 151656Z AUTO 24008KT 10SM CLR 14/M17 A3009 RMK AO2 SLP268
T01391167 $





000
SAUS45 KVEF 151558
MTRBJN
METAR KBJN 151556Z AUTO 20006KT 10SM CLR 12/M16 A3009 RMK AO2 SLP269
T01221161 $





000
SAUS45 KVEF 151358
MTRBJN
METAR KBJN 151356Z AUTO 23004KT 10SM CLR 07/M16 A3010 RMK AO2 SLP271
T00721161 $





000
SAUS45 KVEF 151258
MTRBJN
METAR KBJN 151256Z AUTO 27005KT 10SM CLR 06/M17 A3010 RMK AO2 SLP272
T00611172 $





000
SAUS45 KVEF 151158
MTRBJN
METAR KBJN 151156Z AUTO VRB04KT 10SM CLR 08/M18 A3011 RMK AO2 SLP274
T00831178 10089 20022 56013 $





000
SAUS45 KVEF 150958
MTRBJN
METAR KBJN 150956Z AUTO 27003KT 10SM CLR 04/M18 A3013 RMK AO2 SLP281
T00391178 $





000
SAUS45 KVEF 150858
MTRBJN
METAR KBJN 150856Z AUTO 26006KT 10SM CLR 04/M18 A3015 RMK AO2 SLP287
T00441178 58012 $





000
SAUS45 KVEF 150758
MTRBJN
METAR KBJN 150756Z AUTO 25003KT 10SM CLR 06/M18 A3017 RMK AO2 SLP291
T00561178 $





000
SAUS45 KVEF 150658
MTRBJN
METAR KBJN 150656Z AUTO 24007KT 10SM CLR 07/M17 A3018 RMK AO2 SLP295
T00671167 401721017 $





000
SAUS45 KVEF 150558
MTRBJN
METAR KBJN 150556Z AUTO 26006KT 10SM CLR 06/M17 A3020 RMK AO2 SLP299
T00561172 10172 20056 50008 $





000
SAUS45 KVEF 150458
MTRBJN
METAR KBJN 150456Z AUTO 23008KT 10SM CLR 08/M17 A3020 RMK AO2 SLP300
T00781172 $





000
SAUS45 KVEF 150358
MTRBJN
METAR KBJN 150356Z AUTO 24008KT 10SM CLR 10/M18 A3019 RMK AO2 SLP296
T01001178 $





000
SAUS45 KVEF 150258
MTRBJN
METAR KBJN 150256Z AUTO 27008KT 10SM CLR 08/M22 A3017 RMK AO2 SLP291
T00781222 55005 $





000
SAUS45 KVEF 150158
MTRBJN
METAR KBJN 150156Z AUTO 23003KT 10SM CLR 16/M23 A3016 RMK AO2 SLP289
T01561233 $





000
SAUS45 KVEF 150058
MTRBJN
METAR KBJN 150056Z AUTO 14004KT 10SM CLR 17/M24 A3017 RMK AO2 SLP291
T01671239 $





000
SAUS45 KVEF 142358
MTRBJN
METAR KBJN 142356Z AUTO 16006KT 10SM CLR 17/M24 A3019 RMK AO2 SLP296
T01671239 10172 20106 56018 $





000
SAUS45 KVEF 142258
MTRBJN
METAR KBJN 142256Z AUTO 00000KT 10SM CLR 16/M22 A3020 RMK AO2 SLP301
T01611217 $





000
SAUS45 KVEF 142059 COR
MTRBJN
METAR KBJN 142056Z AUTO 00000KT 10SM CLR 14/M18 A3025 RMK AO2 SLP14
T01391183 56012 $





000
SAUS45 KVEF 142058 COR
MTRBJN
METAR KBJN 142056Z AUTO 00000KT 10SM CLR 14/M18 A3025 RMK AO2 SLP314
T01391183 56012 $





000
SAUS45 KVEF 142058
MTRBJN
METAR KBJN 142056Z AUTO 00000KT 10SM CLR 14/M18 A3025 RMK AO2 SLP314
T01391183 56012 $





000
SAUS45 KVEF 141958
MTRBJN
METAR KBJN 141956Z AUTO 08009G14KT 10SM CLR 14/M17 A3026 RMK AO2
SLP318 T01441167 $





000
SAUS45 KVEF 141858
MTRBJN
METAR KBJN 141856Z AUTO 03007G14KT 10SM CLR 12/M18 A3027 RMK AO2
SLP321 T01221183 $





000
SAUS45 KVEF 141758
MTRBJN
METAR KBJN 141756Z AUTO 04010G15KT 10SM CLR 11/M18 A3029 RMK AO2
SLP326 T01061178 10106 21017 50001 $





000
SAUS45 KVEF 141558
MTRBJN
METAR KBJN 141556Z AUTO 04012KT 10SM CLR 07/M16 A3029 RMK AO2 SLP326
T00721161 $





000
SAUS45 KVEF 141458
MTRBJN
METAR KBJN 141456Z AUTO 05011KT 10SM CLR 04/M17 A3029 RMK AO2 SLP326
T00441172 51015 $





000
SAUS45 KVEF 141358
MTRBJN
METAR KBJN 141356Z AUTO 16007KT 10SM CLR 01/M18 A3028 RMK AO2 SLP323
T00061178 $





000
SAUS45 KVEF 141158
MTRBJN
METAR KBJN 141156Z AUTO 02010KT 10SM CLR 01/M19 A3024 RMK AO2 SLP311
T00111189 10067 20000 53005 $





000
SAUS45 KVEF 141058
MTRBJN
METAR KBJN 141056Z AUTO 04009KT 10SM CLR 04/M19 A3023 RMK AO2 SLP309
T00441189 $





000
SAUS45 KVEF 140758
MTRBJN
METAR KBJN 140756Z AUTO 01013KT 10SM CLR 06/M17 A3021 RMK AO2 SLP302
T00561172 $





000
SAUS45 KVEF 140659 COR
MTRBJN
METAR KBJN 140656Z AUTO 01014KT 10SM CLR 06/M17 A3020 RMK AO2 SLP299
T00561172 401670056 $





000
SAUS45 KVEF 140658 COR
MTRBJN
METAR KBJN 140656Z AUTO 01014KT 10SM CLR 06/M17 A3020 RMK AO2 SLP299
T00561172 401670056 $





000
SAUS45 KVEF 140658
MTRBJN
METAR KBJN 140656Z AUTO 01014KT 10SM CLR 06/M17 A3020 RMK AO2 SLP299
T00561172 401670056 $





000
SAUS45 KVEF 140558
MTRBJN
METAR KBJN 140556Z AUTO 35011KT 10SM CLR 07/M18 A3020 RMK AO2 SLP299
T00671183 10156 20067 51028 $





000
SAUS45 KVEF 140358
MTRBJN
METAR KBJN 140356Z AUTO 01012KT 10SM CLR 08/M17 A3014 RMK AO2 SLP284
T00831167 $





000
SAUS45 KVEF 140258
MTRBJN
METAR KBJN 140256Z AUTO 03013KT 10SM CLR 09/M17 A3010 RMK AO2 SLP271
T00891167 53019 $





000
SAUS45 KVEF 140158
MTRBJN
METAR KBJN 140156Z AUTO 04014KT 10SM CLR 11/M17 A3007 RMK AO2 PK WND
03028/0120 SLP262 T01111172 $





000
SAUS45 KVEF 132358
MTRBJN
METAR KBJN 132356Z AUTO 01019G23KT 10SM CLR 16/M20 A3003 RMK AO2 PK
WND 02027/2312 SLP252 T01561200 10167 20133 53005 $





000
SAUS45 KVEF 132258
MTRBJN
METAR KBJN 132256Z AUTO 04019G27KT 10SM CLR 16/M20 A3002 RMK AO2 PK
WND 01030/2240 SLP249 T01611200 $





000
SAUS45 KVEF 132158
MTRBJN
METAR KBJN 132156Z AUTO 01019G27KT 10SM CLR 16/M19 A3002 RMK AO2 PK
WND 01027/2150 SLP247 T01611194 $





000
SAUS45 KVEF 132058
MTRBJN
METAR KBJN 132056Z AUTO 01019G31KT 10SM CLR 17/M21 A3002 RMK AO2 PK
WND 36031/2050 SLP246 T01671206 53002 $





000
SAUS45 KVEF 132000 COR
MTRBJN
METAR KBJN 131956Z AUTO 02023G30KT 10SM CLR 16/M18 A3001 RMK AO2 PK
WND 36030/1956 SLP44 T01561183 $





000
SAUS45 KVEF 131959 COR
MTRBJN
METAR KBJN 131956Z AUTO 02023G30KT 10SM CLR 16/M18 A3001 RMK AO2 PK
WND 36030/1956 SLP244 T01561183 $





000
SAUS45 KVEF 131958
MTRBJN
METAR KBJN 131956Z AUTO 02023G30KT 10SM CLR 16/M18 A3001 RMK AO2 PK
WND 36030/1956 SLP244 T01561183 $





000
SAUS45 KVEF 131958 COR
MTRBJN
METAR KBJN 131956Z AUTO 02023G30KT 10SM CLR 16/M18 A3001 RMK AO2 PK
WND 36030/1956 SLP244 T01561183 $





    US Dept of Commerce
    National Oceanic and Atmospheric Administration
    National Weather Service
    1325 East West Highway
    Silver Spring, MD 20910
    Page Author: NWS Internet Services Team
Disclaimer
Information Quality
Credits
Glossary
Privacy Policy
Freedom of Information Act (FOIA)
About Us
Career Opportunities